Time;durP1;ratioP1;P1;durP2;ratioP2;P2;SDS_P1;SDS_P2;PMS_P1;PMS_P2;Temp;Humidity;BMP_temperature;BMP_pressure;BME280_temperature;BME280_humidity;BME280_pressure;Samples;Min_cycle;Max_cycle;Signal;HPM_P1;HPM_P2
2022/10/31 00:01:29;;;;;;;12.63;8.60;;;12.50;99.90;;;-141.84;77.71;19147.28;5031182;28;20284;-62
2022/10/31 00:03:57;;;;;;;9.57;8.30;;;12.50;99.90;;;-141.84;77.67;19147.28;5031197;28;20602;-61
2022/10/31 00:06:29;;;;;;;10.90;7.93;;;12.50;99.90;;;-141.84;77.40;19171.66;5030899;28;20226;-62
2022/10/31 00:09:00;;;;;;;10.75;8.07;;;12.50;99.90;;;-141.84;77.04;19187.91;5031370;28;20272;-62
2022/10/31 00:11:29;;;;;;;8.95;7.72;;;12.50;99.90;;;-141.84;76.76;19208.25;5031272;28;20197;-60
2022/10/31 00:13:58;;;;;;;9.15;7.60;;;12.50;99.90;;;-141.84;76.89;19153.38;5031506;28;20206;-61
2022/10/31 00:16:28;;;;;;;9.50;7.75;;;12.50;99.90;;;-141.84;77.30;19161.50;5031019;28;20222;-61
2022/10/31 00:19:01;;;;;;;9.68;7.50;;;12.50;99.90;;;-141.84;77.59;19141.19;5031010;28;20237;-61
2022/10/31 00:21:32;;;;;;;11.57;7.25;;;12.50;99.90;;;-141.84;77.43;19189.97;5030894;28;20230;-60
2022/10/31 00:24:01;;;;;;;9.23;7.05;;;12.50;99.90;;;-141.84;77.54;19167.59;5031051;28;20283;-62
2022/10/31 00:26:31;;;;;;;10.25;7.70;;;12.50;99.90;;;-141.84;77.54;19157.44;5030956;28;20213;-62
2022/10/31 00:29:00;;;;;;;10.77;7.20;;;12.50;99.90;;;-141.84;77.18;19149.31;5031328;28;20198;-61
2022/10/31 00:31:29;;;;;;;9.55;7.00;;;12.50;99.90;;;-141.84;76.81;19181.81;5029735;28;20301;-61
2022/10/31 00:33:58;;;;;;;11.55;7.75;;;12.50;99.90;;;-141.84;76.67;19177.75;5030824;28;20300;-61
2022/10/31 00:36:26;;;;;;;12.48;7.47;;;12.50;99.90;;;-141.84;76.71;19169.63;5029995;28;20728;-61
2022/10/31 00:38:56;;;;;;;9.95;6.85;;;12.50;99.90;;;-141.84;76.87;19210.28;5030690;28;20221;-61
2022/10/31 00:41:24;;;;;;;9.52;7.20;;;12.50;99.90;;;-141.84;77.07;19169.63;5030826;28;20198;-61
2022/10/31 00:43:52;;;;;;;10.95;7.28;;;12.40;99.90;;;-141.84;77.60;19177.75;5030938;28;20242;-61
2022/10/31 00:46:21;;;;;;;12.70;7.47;;;12.40;99.90;;;-141.84;78.00;19149.31;5030580;28;20225;-61
2022/10/31 00:48:49;;;;;;;10.88;7.03;;;12.40;99.90;;;-141.84;78.22;19145.25;5030703;28;20256;-61
2022/10/31 00:51:17;;;;;;;10.88;8.02;;;12.30;99.90;;;-141.84;78.48;19131.03;5030339;28;20229;-61
2022/10/31 00:53:45;;;;;;;11.77;7.32;;;12.30;99.90;;;-141.84;78.90;19133.06;5030436;28;20763;-62
2022/10/31 00:56:14;;;;;;;10.18;6.95;;;12.20;99.90;;;-141.84;79.21;19143.22;5031050;28;20202;-62
2022/10/31 00:58:42;;;;;;;7.43;6.50;;;12.20;99.90;;;-141.84;79.19;19116.81;5030303;28;20253;-60
2022/10/31 01:01:10;;;;;;;10.75;7.88;;;12.20;99.90;;;-141.84;79.14;19163.53;5030380;28;20234;-60
2022/10/31 01:03:39;;;;;;;10.73;7.63;;;12.20;99.90;;;-141.84;79.05;19131.03;5030570;28;20226;-62
2022/10/31 01:06:10;;;;;;;14.30;6.88;;;12.10;99.90;;;-141.84;78.99;19122.91;5030203;28;20778;-61
2022/10/31 01:08:40;;;;;;;9.60;7.50;;;12.10;99.90;;;-141.84;79.27;19102.56;5030578;28;20660;-61
2022/10/31 01:11:12;;;;;;;10.13;7.67;;;12.10;99.90;;;-141.84;79.50;19133.06;5030895;28;20205;-60
2022/10/31 01:13:42;;;;;;;14.57;7.67;;;12.00;99.90;;;-141.84;79.68;19104.59;5030194;28;20218;-61
2022/10/31 01:16:13;;;;;;;11.90;8.73;;;12.00;99.90;;;-141.84;79.91;19082.25;5030098;28;20567;-61
2022/10/31 01:18:41;;;;;;;12.40;9.70;;;12.00;99.90;;;-141.84;79.84;19059.91;5030189;28;20244;-61
2022/10/31 01:21:13;;;;;;;12.38;9.10;;;11.90;99.90;;;-141.84;80.13;19112.75;5030241;28;20221;-60
2022/10/31 01:23:42;;;;;;;15.02;11.15;;;11.90;99.90;;;-141.84;80.31;19088.34;5030265;28;20222;-60
2022/10/31 01:26:14;;;;;;;13.30;11.25;;;11.90;99.90;;;-141.84;80.53;19057.88;5030514;28;20217;-60
2022/10/31 01:28:48;;;;;;;13.30;10.85;;;11.90;99.90;;;-141.84;80.74;19055.84;5028848;28;20222;-61
2022/10/31 01:31:19;;;;;;;14.63;11.35;;;11.80;99.90;;;-141.84;80.97;19074.13;5030278;28;20225;-61
2022/10/31 01:33:47;;;;;;;18.15;15.30;;;11.80;99.90;;;-141.84;80.85;19049.75;5030348;28;20225;-61
2022/10/31 01:36:19;;;;;;;18.07;15.37;;;11.80;99.90;;;-141.84;80.99;19078.19;5030161;28;20230;-61
2022/10/31 01:38:49;;;;;;;18.67;16.67;;;11.80;99.90;;;-141.84;80.77;19074.13;5030300;28;20234;-61
2022/10/31 01:41:20;;;;;;;24.92;19.85;;;11.80;99.90;;;-141.84;80.84;19106.66;5031054;28;20594;-60
2022/10/31 01:43:56;;;;;;;27.47;20.27;;;11.80;99.90;;;-141.84;80.87;19063.97;5030202;28;20594;-62
2022/10/31 01:46:30;;;;;;;18.67;16.67;;;11.80;99.90;;;-141.84;80.72;19072.09;5029977;28;20221;-61
2022/10/31 01:49:02;;;;;;;17.30;14.57;;;11.70;99.90;;;-141.84;80.85;19051.78;5032257;28;20264;-61
2022/10/31 01:51:35;;;;;;;15.27;12.13;;;11.70;99.90;;;-141.84;80.75;19021.31;5015239;28;20230;-61
2022/10/31 01:54:09;;;;;;;12.85;10.55;;;11.70;99.90;;;-141.84;80.76;19070.06;5014092;28;20674;-60
2022/10/31 01:56:43;;;;;;;11.65;9.18;;;11.70;99.90;;;-141.84;80.75;19011.13;5013981;28;20198;-59
2022/10/31 01:59:18;;;;;;;13.13;8.77;;;11.70;99.90;;;-141.84;80.70;19043.66;5014356;28;20681;-60
2022/10/31 02:01:47;;;;;;;9.85;8.13;;;11.70;99.90;;;-141.84;80.58;19086.31;5033838;28;20209;-61
2022/10/31 02:04:16;;;;;;;10.60;7.50;;;11.70;99.90;;;-141.84;79.97;19070.06;5017911;28;20288;-60
2022/10/31 02:06:54;;;;;;;10.47;8.03;;;11.80;99.90;;;-141.84;79.41;19055.84;5019061;28;20740;-60
2022/10/31 02:09:25;;;;;;;11.27;8.13;;;11.80;99.90;;;-141.84;79.60;19055.84;5033585;28;20245;-61
2022/10/31 02:11:58;;;;;;;11.88;8.23;;;11.80;99.90;;;-141.84;79.75;19078.19;5033032;28;20229;-61
2022/10/31 02:14:31;;;;;;;9.80;7.67;;;11.80;99.90;;;-141.84;79.82;19037.56;5033633;28;20187;-60
2022/10/31 02:16:59;;;;;;;7.90;7.10;;;11.70;99.90;;;-141.84;80.01;19043.66;5034125;28;20190;-60
2022/10/31 02:19:36;;;;;;;12.30;7.70;;;11.70;99.90;;;-141.84;79.79;19037.56;5033469;28;20260;-61
2022/10/31 02:22:17;;;;;;;10.87;7.53;;;11.70;99.90;;;-141.84;80.00;19053.81;5032891;28;20221;-60
2022/10/31 02:25:03;;;;;;;9.57;7.15;;;11.70;99.90;;;-141.84;80.37;19049.75;5020069;28;20227;-60
2022/10/31 02:28:25;;;;;;;7.87;7.07;;;11.70;99.90;;;-141.84;80.10;19025.38;5013055;28;20464;-61
2022/10/31 02:31:18;;;;;;;11.00;6.70;;;11.60;99.90;;;-141.84;79.38;19068.03;5013386;28;20234;-62
2022/10/31 02:33:52;;;;;;;9.03;7.33;;;11.70;99.90;;;-141.84;79.21;19063.97;5013235;28;20223;-61
2022/10/31 02:36:32;;;;;;;10.10;7.77;;;11.70;99.90;;;-141.84;79.45;19070.06;5013285;28;20237;-61
2022/10/31 02:39:13;;;;;;;8.20;7.40;;;11.70;99.90;;;-141.84;79.72;19027.41;5013009;28;20741;-60
2022/10/31 02:41:53;;;;;;;11.43;7.73;;;11.60;99.90;;;-141.84;80.12;19045.69;5012889;28;20226;-60
2022/10/31 02:44:30;;;;;;;13.57;8.40;;;11.60;99.90;;;-141.84;80.40;19019.28;5012838;28;20241;-60
2022/10/31 02:47:06;;;;;;;11.10;8.33;;;11.60;99.90;;;-141.84;80.71;19043.66;5013719;28;20558;-60
2022/10/31 02:49:44;;;;;;;10.17;8.33;;;11.50;99.90;;;-141.84;81.02;19003.00;5012643;28;20229;-61
2022/10/31 02:52:19;;;;;;;10.67;7.67;;;11.50;99.90;;;-141.84;81.04;19013.16;5012738;28;20277;-61
2022/10/31 02:54:49;;;;;;;11.53;7.57;;;11.50;99.90;;;-141.84;81.15;19009.09;5012968;28;20245;-60
2022/10/31 02:57:23;;;;;;;10.03;7.43;;;11.50;99.90;;;-141.84;81.24;19031.47;5012636;28;20257;-62
2022/10/31 02:59:56;;;;;;;10.43;7.80;;;11.50;99.90;;;-141.84;81.55;18980.66;5012513;28;20231;-61
2022/10/31 03:02:49;;;;;;;11.70;7.50;;;11.50;99.90;;;-141.84;81.73;19013.16;5012527;28;20187;-60
2022/10/31 03:05:55;;;;;;;11.80;7.65;;;11.40;99.90;;;-141.84;81.93;19000.97;5013428;28;20241;-62
2022/10/31 03:08:30;;;;;;;10.73;7.60;;;11.40;99.90;;;-141.84;82.28;18978.63;5031480;28;20222;-62
2022/10/31 03:11:03;;;;;;;11.17;7.60;;;11.30;99.90;;;-141.84;82.27;19005.03;5033068;28;20482;-60
2022/10/31 03:13:45;;;;;;;9.40;6.90;;;11.30;99.90;;;-141.84;82.29;18964.41;5031902;28;20229;-62
2022/10/31 03:16:19;;;;;;;11.37;7.63;;;11.30;99.90;;;-141.84;82.54;18988.78;5032282;28;20226;-60
2022/10/31 03:18:55;;;;;;;9.70;7.33;;;11.30;99.90;;;-141.84;82.69;18980.66;5044163;28;20232;-61
2022/10/31 03:21:31;;;;;;;12.77;7.77;;;11.30;99.90;;;-141.84;82.89;18966.44;5026954;28;20230;-61
2022/10/31 03:24:02;;;;;;;10.80;7.23;;;11.30;99.90;;;-141.84;82.69;18970.50;5017667;28;20287;-60
2022/10/31 03:26:31;;;;;;;11.43;8.20;;;11.30;99.90;;;-141.84;82.80;18988.78;5031040;28;20193;-60
2022/10/31 03:29:07;;;;;;;14.67;8.00;;;11.30;99.90;;;-141.84;83.01;18940.03;5012533;28;20210;-61
2022/10/31 03:31:42;;;;;;;12.53;7.47;;;11.20;99.90;;;-141.84;83.13;18954.25;5030691;28;20237;-60
2022/10/31 03:34:14;;;;;;;11.97;8.20;;;11.20;99.90;;;-141.84;83.14;18948.16;5016673;28;20707;-61
2022/10/31 03:36:45;;;;;;;10.07;7.30;;;11.20;99.90;;;-141.84;83.15;18952.22;5028785;28;20226;-62
2022/10/31 03:39:18;;;;;;;9.60;7.87;;;11.20;99.90;;;-141.84;83.38;18929.88;5051529;28;20233;-61
2022/10/31 03:41:55;;;;;;;13.93;8.88;;;11.10;99.90;;;-141.84;83.29;18968.47;5051882;28;20224;-61
2022/10/31 03:44:25;;;;;;;11.02;8.40;;;11.20;99.90;;;-141.84;82.93;18978.63;5051482;28;20233;-61
2022/10/31 03:46:53;;;;;;;11.37;8.13;;;11.20;99.90;;;-141.84;83.12;18933.94;5052185;28;20198;-61
2022/10/31 03:49:23;;;;;;;9.50;7.83;;;11.10;99.90;;;-141.84;83.49;18956.28;5050138;28;20663;-62
2022/10/31 03:52:00;;;;;;;9.27;7.97;;;11.10;99.90;;;-141.84;83.43;18944.09;5019208;28;20422;-60
2022/10/31 03:54:38;;;;;;;12.93;7.83;;;11.10;99.90;;;-141.84;83.34;18976.59;5021006;28;20237;-62
2022/10/31 03:57:17;;;;;;;13.07;7.87;;;11.10;99.90;;;-141.84;82.93;18952.22;5024987;28;20233;-61
2022/10/31 03:59:51;;;;;;;10.53;8.03;;;11.10;99.90;;;-141.84;82.42;18962.38;5011759;28;20668;-60
2022/10/31 04:02:29;;;;;;;11.47;8.23;;;11.20;99.90;;;-141.84;82.55;18935.97;5012306;28;20183;-60
2022/10/31 04:05:00;;;;;;;12.27;8.63;;;11.10;99.90;;;-141.84;82.90;18950.19;5011658;28;20214;-60
2022/10/31 04:07:34;;;;;;;13.87;10.33;;;11.10;99.90;;;-141.84;82.61;18956.28;5022703;28;20229;-60
2022/10/31 04:10:08;;;;;;;14.60;12.13;;;11.20;99.90;;;-141.84;82.51;18982.69;5030921;28;20763;-61
2022/10/31 04:12:40;;;;;;;14.03;11.83;;;11.10;99.90;;;-141.84;82.23;18968.47;5030859;28;20229;-61
2022/10/31 04:15:10;;;;;;;14.63;10.83;;;11.20;99.90;;;-141.84;81.49;18962.38;5030886;28;20244;-61
2022/10/31 04:17:43;;;;;;;12.40;10.47;;;11.20;99.90;;;-141.84;81.71;18976.59;5014959;28;20207;-61
2022/10/31 04:20:17;;;;;;;12.47;10.73;;;11.30;99.90;;;-141.84;82.36;18948.16;5011875;28;20206;-61
2022/10/31 04:22:45;;;;;;;16.30;13.67;;;11.30;99.90;;;-141.84;82.33;18958.31;5011176;28;20226;-61
2022/10/31 04:25:13;;;;;;;18.77;16.03;;;11.30;99.90;;;-141.84;81.62;18944.09;5011015;28;20280;-60
2022/10/31 04:27:41;;;;;;;26.43;23.47;;;11.20;99.90;;;-141.84;81.31;18972.53;5011024;28;20237;-60
2022/10/31 04:30:10;;;;;;;24.50;21.07;;;11.20;99.90;;;-141.84;81.68;18952.22;5011010;28;20238;-60
2022/10/31 04:32:38;;;;;;;20.00;14.03;;;11.20;99.90;;;-141.84;81.98;18940.03;5011020;28;20199;-61
2022/10/31 04:35:07;;;;;;;14.73;11.20;;;11.20;99.90;;;-141.84;81.91;18974.56;5011607;28;20211;-60
2022/10/31 04:37:37;;;;;;;12.83;10.23;;;11.20;99.90;;;-141.84;81.98;19009.09;5010996;28;20229;-61
2022/10/31 04:40:06;;;;;;;11.93;9.53;;;11.10;99.90;;;-141.84;81.96;18968.47;5010751;28;20601;-61
2022/10/31 04:42:34;;;;;;;12.93;8.93;;;11.10;99.90;;;-141.84;81.61;18940.03;5010846;28;20633;-61
2022/10/31 04:45:02;;;;;;;10.47;8.27;;;11.20;99.90;;;-141.84;81.63;18948.16;5016730;28;20233;-61
2022/10/31 04:47:32;;;;;;;13.40;8.83;;;11.10;99.90;;;-141.84;81.82;18948.16;5030794;28;20202;-62
2022/10/31 04:50:03;;;;;;;9.55;8.20;;;11.10;99.90;;;-141.84;81.92;18948.16;5031065;28;20249;-61
2022/10/31 04:52:31;;;;;;;11.40;8.83;;;11.10;99.90;;;-141.84;82.00;18952.22;5030442;28;20234;-61
2022/10/31 04:55:01;;;;;;;10.97;8.17;;;11.10;99.90;;;-141.84;81.97;18950.19;5030349;28;20233;-61
2022/10/31 04:57:29;;;;;;;15.67;8.70;;;11.10;99.90;;;-141.84;81.57;18956.28;5030435;28;20230;-60
2022/10/31 04:59:57;;;;;;;10.20;8.07;;;11.10;99.90;;;-141.84;81.65;18954.25;5030231;28;20234;-62
2022/10/31 05:02:25;;;;;;;10.57;8.00;;;11.10;99.90;;;-141.84;82.22;18972.53;5030242;28;20673;-62
2022/10/31 05:04:53;;;;;;;10.70;8.97;;;11.00;99.90;;;-141.84;82.67;18921.75;5030941;28;20237;-61
2022/10/31 05:07:21;;;;;;;9.10;8.20;;;11.10;99.90;;;-141.84;83.31;18938.00;5030139;28;20226;-61
2022/10/31 05:09:49;;;;;;;9.97;8.53;;;11.00;99.90;;;-141.84;83.61;18925.81;5030236;28;20225;-60
2022/10/31 05:12:18;;;;;;;11.70;8.70;;;10.90;99.90;;;-141.84;83.96;18929.88;5029145;28;20218;-61
2022/10/31 05:14:46;;;;;;;11.97;8.27;;;10.90;99.90;;;-141.84;83.98;18895.31;5030351;28;20233;-61
2022/10/31 05:17:15;;;;;;;12.20;8.70;;;10.90;99.90;;;-141.84;84.16;18917.66;5031553;28;20202;-61
2022/10/31 05:19:43;;;;;;;11.97;8.43;;;10.90;99.90;;;-141.84;84.05;18915.63;5029877;28;20233;-61
2022/10/31 05:22:11;;;;;;;11.77;8.40;;;10.80;99.90;;;-141.84;83.73;18925.81;5031140;28;20275;-61
2022/10/31 05:24:39;;;;;;;11.80;8.53;;;10.90;99.90;;;-141.84;84.05;18887.19;5034101;28;20611;-61
2022/10/31 05:27:07;;;;;;;9.23;8.15;;;10.80;99.90;;;-141.84;84.11;18891.25;5034174;28;20233;-62
2022/10/31 05:29:37;;;;;;;10.03;7.60;;;10.80;99.90;;;-141.84;84.08;18854.69;5034144;28;20198;-61
2022/10/31 05:32:05;;;;;;;14.80;9.20;;;10.80;99.90;;;-141.84;83.94;18899.38;5034825;28;20205;-61
2022/10/31 05:34:33;;;;;;;8.63;7.73;;;10.80;99.90;;;-141.84;83.90;18940.03;5033887;28;20236;-61
2022/10/31 05:37:01;;;;;;;10.40;8.23;;;10.80;99.90;;;-141.84;84.32;18854.69;5033960;28;20222;-60
2022/10/31 05:39:29;;;;;;;10.67;8.10;;;10.80;99.90;;;-141.84;84.63;18862.81;5033826;28;20249;-60
2022/10/31 05:41:57;;;;;;;10.13;8.50;;;10.70;99.90;;;-141.84;84.39;18899.38;5033689;28;20276;-61
2022/10/31 05:44:25;;;;;;;11.97;8.60;;;10.70;99.90;;;-141.84;83.97;18864.84;5033660;28;20237;-61
2022/10/31 05:46:54;;;;;;;12.00;8.70;;;10.70;99.90;;;-141.84;83.93;18883.13;5034012;28;20206;-61
2022/10/31 05:49:22;;;;;;;11.27;8.40;;;10.80;99.90;;;-141.84;83.68;18879.06;5033463;28;20604;-61
2022/10/31 05:51:50;;;;;;;12.97;8.97;;;10.80;99.90;;;-141.84;83.47;18895.31;5033746;28;20226;-61
2022/10/31 05:54:18;;;;;;;12.73;9.23;;;10.80;99.90;;;-141.84;83.12;18895.31;5033681;28;20226;-61
2022/10/31 05:56:46;;;;;;;10.20;7.77;;;10.80;99.90;;;-141.84;83.39;18889.22;5033697;28;20221;-60
2022/10/31 05:59:14;;;;;;;10.10;8.23;;;10.80;99.90;;;-141.84;83.48;18877.03;5033704;28;20213;-62
2022/10/31 06:01:42;;;;;;;11.27;8.30;;;10.80;99.90;;;-141.84;83.62;18911.56;5033316;28;20234;-60
2022/10/31 06:04:11;;;;;;;15.20;8.70;;;10.80;99.90;;;-141.84;83.82;18887.19;5033483;28;20280;-61
2022/10/31 06:06:40;;;;;;;19.40;8.57;;;10.70;99.90;;;-141.84;83.93;18887.19;5033311;28;20279;-61
2022/10/31 06:09:07;;;;;;;12.20;8.87;;;10.80;99.90;;;-141.84;83.46;18891.25;5032558;28;20233;-61
2022/10/31 06:11:35;;;;;;;12.70;8.60;;;10.80;99.90;;;-141.84;82.95;18901.41;5033314;28;20198;-60
2022/10/31 06:14:04;;;;;;;10.43;8.63;;;10.80;99.90;;;-141.84;82.79;18901.41;5033542;28;20205;-61
2022/10/31 06:16:32;;;;;;;11.87;8.67;;;10.80;99.90;;;-141.84;82.77;18881.09;5033138;28;20221;-61
2022/10/31 06:19:00;;;;;;;14.17;8.67;;;10.80;99.90;;;-141.84;82.94;18891.25;5033402;28;20238;-62
2022/10/31 06:21:29;;;;;;;9.77;8.17;;;10.80;99.90;;;-141.84;83.01;18923.78;5032992;28;20230;-61
2022/10/31 06:23:57;;;;;;;12.07;8.53;;;10.80;99.90;;;-141.84;83.22;18917.66;5032941;28;20237;-61
2022/10/31 06:26:25;;;;;;;16.27;10.83;;;10.80;99.90;;;-141.84;83.26;18899.38;5032895;28;20202;-61
2022/10/31 06:28:53;;;;;;;13.87;9.97;;;10.90;99.90;;;-141.84;83.02;18891.25;5033288;28;20650;-60
2022/10/31 06:31:24;;;;;;;12.63;8.50;;;10.90;99.90;;;-141.84;82.55;18915.63;5032894;28;20565;-60
2022/10/31 06:33:52;;;;;;;12.73;8.53;;;10.90;99.90;;;-141.84;81.96;18883.13;5032550;28;20586;-61
2022/10/31 06:36:20;;;;;;;11.50;8.13;;;10.90;99.90;;;-141.84;81.68;18931.91;5032930;28;20230;-62
2022/10/31 06:38:50;;;;;;;13.33;8.60;;;11.00;99.90;;;-141.84;81.33;18956.28;5032916;28;20660;-61
2022/10/31 06:41:18;;;;;;;11.40;9.07;;;11.10;99.90;;;-141.84;81.17;18952.22;5033300;28;20222;-62
2022/10/31 06:43:48;;;;;;;12.37;9.17;;;11.10;99.90;;;-141.84;81.20;18940.03;5032689;28;20708;-61
2022/10/31 06:46:16;;;;;;;13.23;8.57;;;11.20;99.90;;;-141.84;81.16;18927.84;5032918;28;20226;-61
2022/10/31 06:48:44;;;;;;;10.67;8.80;;;11.20;99.90;;;-141.84;80.92;18954.25;5032788;28;20249;-61
2022/10/31 06:51:12;;;;;;;10.47;8.10;;;11.20;99.90;;;-141.84;80.01;18982.69;5032325;28;20248;-61
2022/10/31 06:53:40;;;;;;;12.83;8.63;;;11.30;99.90;;;-141.84;79.82;18980.66;5032465;28;20734;-61
2022/10/31 06:56:09;;;;;;;11.00;8.40;;;11.40;99.90;;;-141.84;79.89;18980.66;5032968;28;20221;-60
2022/10/31 06:58:37;;;;;;;11.43;8.27;;;11.50;99.90;;;-141.84;80.25;18976.59;5032291;28;20287;-62
2022/10/31 07:01:05;;;;;;;11.10;8.43;;;11.50;99.90;;;-141.84;80.55;18956.28;5032196;28;20241;-61
2022/10/31 07:03:33;;;;;;;10.07;8.90;;;11.60;99.90;;;-141.84;80.32;18970.50;5032354;28;20978;-61
2022/10/31 07:06:02;;;;;;;10.40;8.25;;;11.60;99.90;;;-141.84;79.47;18998.94;5031008;28;20226;-61
2022/10/31 07:08:30;;;;;;;13.13;7.63;;;11.80;99.90;;;-141.84;79.42;18972.53;5032465;28;20202;-61
2022/10/31 07:10:58;;;;;;;10.23;8.37;;;11.80;99.90;;;-141.84;79.31;19033.50;5032745;28;20202;-63
2022/10/31 07:13:28;;;;;;;9.20;7.67;;;11.90;99.90;;;-141.84;78.95;19041.63;5031931;28;20230;-61
2022/10/31 07:16:02;;;;;;;10.97;7.97;;;12.00;99.90;;;-141.84;78.64;19053.81;5032038;28;20292;-60
2022/10/31 07:18:30;;;;;;;7.60;6.80;;;12.10;99.90;;;-141.84;78.50;19053.81;5032145;28;20229;-61
2022/10/31 07:20:58;;;;;;;8.93;7.37;;;12.20;99.90;;;-141.84;78.34;19074.13;5031804;28;20272;-60
2022/10/31 07:23:26;;;;;;;12.60;8.00;;;12.30;99.90;;;-141.84;78.11;19057.88;5031483;28;20206;-61
2022/10/31 07:25:57;;;;;;;10.57;8.50;;;12.40;99.90;;;-141.84;77.75;19068.03;5032303;28;20206;-61
2022/10/31 07:28:26;;;;;;;11.83;9.97;;;12.40;99.90;;;-141.84;77.54;19098.50;5031530;28;20233;-63
2022/10/31 07:30:58;;;;;;;11.83;9.27;;;12.50;99.90;;;-141.84;77.11;19098.50;5031962;28;20233;-61
2022/10/31 07:33:26;;;;;;;10.45;8.18;;;12.60;99.90;;;-141.84;76.56;19126.97;5031808;28;20225;-60
2022/10/31 07:35:55;;;;;;;11.50;8.52;;;12.70;99.90;;;-141.84;75.98;19141.19;5031773;28;20232;-61
2022/10/31 07:38:23;;;;;;;12.05;8.93;;;12.80;99.90;;;-141.84;74.55;19145.25;5031315;28;20666;-61
2022/10/31 07:40:53;;;;;;;12.95;8.55;;;12.80;99.90;;;-141.84;73.98;19171.66;5031703;28;20630;-61
2022/10/31 07:43:22;;;;;;;10.30;7.45;;;12.90;99.90;;;-141.84;73.76;19216.38;5031170;28;20229;-61
2022/10/31 07:45:52;;;;;;;9.57;7.88;;;12.90;99.90;;;-141.84;73.21;19210.28;5030482;28;20230;-60
2022/10/31 07:48:21;;;;;;;10.57;8.02;;;13.00;99.90;;;-141.84;72.45;19289.53;5031255;28;20221;-61
2022/10/31 07:50:49;;;;;;;11.38;7.95;;;13.00;99.90;;;-141.84;71.99;19259.03;5031295;28;20226;-62
2022/10/31 07:53:17;;;;;;;10.30;8.02;;;13.10;99.90;;;-141.84;71.57;19281.41;5031615;28;20206;-61
2022/10/31 07:55:46;;;;;;;9.77;7.13;;;13.20;99.90;;;-141.84;71.29;19299.69;5031701;28;20218;-61
2022/10/31 07:58:16;;;;;;;9.05;7.13;;;13.40;99.90;;;-141.84;70.81;19348.47;5030977;28;20230;-62
2022/10/31 08:00:47;;;;;;;9.73;7.45;;;13.60;99.90;;;-141.84;69.96;19366.75;5030110;28;20239;-61
2022/10/31 08:03:18;;;;;;;10.02;7.47;;;13.80;99.90;;;-141.84;69.29;19389.09;5011175;28;20261;-62
2022/10/31 08:05:47;;;;;;;12.20;7.95;;;14.00;99.90;;;-141.84;68.98;19423.66;5011560;28;20222;-61
2022/10/31 08:08:16;;;;;;;9.35;7.53;;;14.10;99.90;;;-141.84;68.54;19484.59;5029566;28;20665;-60
2022/10/31 08:10:44;;;;;;;9.75;7.70;;;14.10;99.90;;;-141.84;67.66;19492.75;5031329;28;20613;-61
2022/10/31 08:13:14;;;;;;;10.77;7.90;;;14.20;99.90;;;-141.84;67.26;19523.22;5030662;28;20230;-60
2022/10/31 08:15:42;;;;;;;10.32;7.95;;;14.40;99.90;;;-141.84;67.06;19490.72;5030729;28;20236;-59
2022/10/31 08:18:14;;;;;;;12.88;7.75;;;14.50;99.90;;;-141.84;66.85;19559.81;5030834;28;20276;-59
2022/10/31 08:20:44;;;;;;;13.65;8.10;;;14.50;99.90;;;-141.84;67.07;19511.03;5030751;28;20705;-60
2022/10/31 08:23:14;;;;;;;10.55;8.00;;;14.50;99.90;;;-141.84;66.90;19553.72;5031096;28;20201;-60
2022/10/31 08:25:42;;;;;;;10.90;7.18;;;14.50;99.90;;;-141.84;66.87;19549.63;5030758;28;20736;-59
2022/10/31 08:28:12;;;;;;;8.90;7.65;;;14.70;99.90;;;-141.84;66.58;19588.25;5030329;28;20229;-59
2022/10/31 08:30:42;;;;;;;10.75;7.63;;;14.70;99.90;;;-141.84;66.33;19612.63;5030666;28;20226;-60
2022/10/31 08:33:13;;;;;;;10.05;6.50;;;14.80;99.90;;;-141.84;66.27;19604.50;5030424;28;20763;-60
2022/10/31 08:35:42;;;;;;;7.95;7.10;;;14.90;99.90;;;-141.84;66.14;19641.09;5030293;28;20696;-60
2022/10/31 08:38:11;;;;;;;11.02;7.78;;;15.00;99.90;;;-141.84;66.08;19667.50;5030557;28;20210;-60
2022/10/31 08:40:41;;;;;;;11.73;8.15;;;15.10;99.90;;;-141.84;65.58;19685.81;5030671;28;20717;-60
2022/10/31 08:43:14;;;;;;;13.73;9.23;;;15.20;99.90;;;-141.84;65.12;19679.72;5030335;28;20652;-60
2022/10/31 08:45:44;;;;;;;11.02;9.07;;;15.20;99.90;;;-141.84;65.41;19695.97;5030398;28;20233;-60
2022/10/31 08:48:15;;;;;;;9.27;8.23;;;15.30;99.90;;;-141.84;65.16;19710.19;5030244;28;20225;-60
2022/10/31 08:50:45;;;;;;;12.27;9.25;;;15.40;99.90;;;-141.84;64.86;19695.97;5030467;28;20221;-60
2022/10/31 08:53:16;;;;;;;10.48;7.97;;;15.40;99.90;;;-141.84;64.90;19685.81;5030428;28;20449;-61
2022/10/31 08:55:47;;;;;;;11.52;8.65;;;15.60;99.90;;;-141.84;64.91;19761.00;5030390;28;20627;-60
2022/10/31 08:58:18;;;;;;;14.45;9.23;;;15.70;99.90;;;-141.84;64.40;19763.03;5028859;28;20272;-60
2022/10/31 09:00:48;;;;;;;13.57;9.43;;;15.80;99.90;;;-141.84;64.70;19789.44;5030304;28;20584;-61
2022/10/31 09:03:19;;;;;;;12.95;9.45;;;15.80;99.90;;;-141.84;64.85;19769.13;5030404;28;20334;-60
2022/10/31 09:05:48;;;;;;;12.05;9.05;;;15.80;99.90;;;-141.84;65.32;19769.13;5030492;28;20233;-60
2022/10/31 09:08:17;;;;;;;14.20;9.65;;;15.80;99.90;;;-141.84;65.36;19765.06;5030254;28;20662;-60
2022/10/31 09:10:46;;;;;;;20.17;12.15;;;15.80;99.90;;;-141.84;65.56;19783.34;5011029;28;20222;-59
2022/10/31 09:13:17;;;;;;;19.10;12.10;;;15.90;99.90;;;-141.84;65.88;19803.69;5025954;28;20241;-61
2022/10/31 09:15:48;;;;;;;19.98;13.48;;;15.90;99.90;;;-141.84;66.68;19803.69;5030557;28;20232;-62
2022/10/31 09:18:18;;;;;;;18.58;12.50;;;15.90;99.90;;;-141.84;66.55;19797.59;5029933;28;20233;-59
2022/10/31 09:20:48;;;;;;;19.83;12.98;;;16.00;99.90;;;-141.84;66.94;19771.16;5030354;28;20225;-58
2022/10/31 09:23:19;;;;;;;23.63;14.63;;;16.10;99.90;;;-141.84;66.63;19789.44;5030384;28;20705;-60
2022/10/31 09:25:52;;;;;;;18.85;13.55;;;16.20;99.90;;;-141.84;66.42;19834.16;5010674;28;20715;-61
2022/10/31 09:28:23;;;;;;;22.75;15.63;;;16.40;99.90;;;-141.84;65.56;19921.56;5026275;28;20234;-59
2022/10/31 09:30:54;;;;;;;24.58;17.40;;;16.60;99.90;;;-141.84;65.42;19915.47;5029974;28;20705;-61
2022/10/31 09:33:22;;;;;;;29.85;19.33;;;16.70;99.90;;;-141.84;65.63;19907.31;5030056;28;20647;-60
2022/10/31 09:35:50;;;;;;;33.25;18.73;;;16.90;99.90;;;-141.84;65.55;19939.84;5030059;28;20697;-60
2022/10/31 09:38:21;;;;;;;33.67;20.15;;;17.00;99.90;;;-141.84;66.63;19862.63;5030408;28;20210;-60
2022/10/31 09:41:02;;;;;;;37.15;22.60;;;17.00;99.90;;;-141.84;66.70;19917.50;5010332;28;20203;-60
2022/10/31 09:43:41;;;;;;;39.45;23.65;;;17.10;99.90;;;-141.84;67.00;19915.47;5009919;28;20300;-60
2022/10/31 09:46:22;;;;;;;41.97;25.10;;;17.00;99.90;;;-141.84;67.72;19868.72;5024956;28;20237;-60
2022/10/31 09:49:24;;;;;;;40.85;24.40;;;17.00;99.90;;;-141.84;67.73;19878.88;5029661;28;20248;-60
2022/10/31 09:52:01;;;;;;;40.47;24.02;;;17.00;99.90;;;-141.84;67.61;19880.91;5010345;28;20222;-59
2022/10/31 09:54:37;;;;;;;33.08;22.38;;;17.10;99.90;;;-141.84;68.02;19882.94;5020251;28;20226;-59
2022/10/31 09:57:13;;;;;;;35.67;22.38;;;17.10;99.90;;;-141.84;68.47;19878.88;5029749;28;20226;-60
2022/10/31 09:59:45;;;;;;;34.33;21.83;;;17.10;99.90;;;-141.84;68.38;19895.13;5029883;28;20225;-59
2022/10/31 10:02:33;;;;;;;34.15;22.27;;;17.10;99.90;;;-141.84;68.81;19882.94;5030328;28;20206;-59
2022/10/31 10:05:05;;;;;;;36.00;23.05;;;17.00;99.90;;;-141.84;68.44;19887.00;5029851;28;20301;-59
2022/10/31 10:07:50;;;;;;;40.72;24.35;;;17.00;99.90;;;-141.84;68.14;19897.16;5029609;28;20222;-60
2022/10/31 10:10:29;;;;;;;39.42;24.92;;;17.10;99.90;;;-141.84;68.97;19838.22;5032112;28;20240;-60
2022/10/31 10:13:28;;;;;;;38.42;23.45;;;17.00;99.90;;;-141.84;68.75;19832.13;5033309;28;20732;-59
2022/10/31 10:16:11;;;;;;;40.03;23.90;;;17.10;99.90;;;-141.84;68.52;19856.53;5033208;28;20597;-60
2022/10/31 10:18:55;;;;;;;35.22;23.13;;;17.20;99.90;;;-141.84;68.94;19864.66;5033282;28;20233;-60